This is the latest recevied weather packets stored in our database for station/object NQ9F. If no packets are shown the sender has not sent any weather packets the latest 10 day(s).
| Time | Temp. | Humidity | Pressure | Rain* | Wind** | Luminosity | Snow |
|---|---|---|---|---|---|---|---|
| 1777566100 | 14.44° C | 97% | 1014.9 hPa | 0 mm | - | 56 W/m² | - |
| 1777565795 | 14.44° C | 97% | 1014.7 hPa | 0 mm | - | 63 W/m² | - |
| 1777565492 | 14.44° C | 97% | 1013.8 hPa | 0.51 mm | - | 111 W/m² | - |
| 1777565188 | 14.44° C | 97% | 1013.8 hPa | 1.27 mm | - | 155 W/m² | - |
| 1777564884 | 14.44° C | 96% | 1013.5 hPa | 0.51 mm | - | 112 W/m² | - |
| 1777564579 | 14.44° C | 96% | 1014.3 hPa | 0.51 mm | - | 99 W/m² | - |
| 1777564275 | 14.44° C | 95% | 1015.1 hPa | 0.51 mm | - | 73 W/m² | - |
| 1777563972 | 15° C | 95% | 1015.2 hPa | 0 mm | - | 63 W/m² | - |
| 1777563668 | 15° C | 94% | 1015.2 hPa | 0 mm | - | 83 W/m² | - |
| 1777563363 | 15° C | 93% | 1015.7 hPa | 0 mm | - | 83 W/m² | - |
| 1777563059 | 15° C | 93% | 1016.1 hPa | 0 mm | - | 80 W/m² | - |
| 1777562754 | 15° C | 92% | 1016.2 hPa | 0 mm | - | 79 W/m² | - |
| 1777562453 | 15° C | 92% | 1016.5 hPa | 0 mm | - | 45 W/m² | - |
| 1777562149 | 15° C | 92% | 1016.3 hPa | 0 mm | - | 71 W/m² | - |
| 1777561847 | 15° C | 92% | 1016.8 hPa | 0 mm | - | 43 W/m² | - |
| 1777561543 | 15° C | 92% | 1017.2 hPa | 0 mm | - | 35 W/m² | - |
| 1777561239 | 15° C | 92% | 1017.3 hPa | 0 mm | - | 36 W/m² | - |
| 1777560938 | 15° C | 92% | 1016.6 hPa | 0 mm | - | 57 W/m² | - |
| 1777560635 | 15° C | 92% | 1016.5 hPa | 0 mm | - | 44 W/m² | - |
| 1777560333 | 15° C | 91% | 1016.7 hPa | 0 mm | - | 43 W/m² | - |
| 1777560031 | 15° C | 91% | 1016.6 hPa | 0 mm | - | 33 W/m² | - |
| 1777559726 | 15° C | 91% | 1016.5 hPa | 0 mm | - | 45 W/m² | - |
| 1777559424 | 15° C | 91% | 1016.1 hPa | 0 mm | - | 69 W/m² | - |
| 1777559121 | 15° C | 91% | 1015.8 hPa | 0 mm | - | 141 W/m² | - |
| 1777558815 | 14.44° C | 92% | 1016 hPa | 0 mm | - | 121 W/m² | - |
* Rain latest hour (hover to see other rain measurements)
** Current wind speed in m/s (hover to see current wind gust speed)